sensor_id;sensor_type;location;lat;lon;timestamp;pressure;altitude;pressure_sealevel;temperature;humidity
3524;BME280;1776;53.330;11.498;2023-10-31T00:01:20;24377.97;;;-147.39;78.33
3524;BME280;1776;53.330;11.498;2023-10-31T00:03:45;24308.84;;;-147.39;77.99
3524;BME280;1776;53.330;11.498;2023-10-31T00:06:10;24292.56;;;-147.39;78.18
3524;BME280;1776;53.330;11.498;2023-10-31T00:08:35;24258.00;;;-147.39;77.73
3524;BME280;1776;53.330;11.498;2023-10-31T00:11:00;24243.78;;;-147.39;78.02
3524;BME280;1776;53.330;11.498;2023-10-31T00:13:26;24443.03;;;-147.39;78.06
3524;BME280;1776;53.330;11.498;2023-10-31T00:15:51;24396.28;;;-147.39;78.22
3524;BME280;1776;53.330;11.498;2023-10-31T00:18:16;24270.22;;;-147.39;78.53
3524;BME280;1776;53.330;11.498;2023-10-31T00:20:42;24278.34;;;-147.39;78.26
3524;BME280;1776;53.330;11.498;2023-10-31T00:23:07;24438.97;;;-147.39;78.46
3524;BME280;1776;53.330;11.498;2023-10-31T00:25:32;24325.09;;;-147.39;78.23
3524;BME280;1776;53.330;11.498;2023-10-31T00:27:58;24085.19;;;-147.39;77.72
3524;BME280;1776;53.330;11.498;2023-10-31T00:30:23;24243.78;;;-147.39;78.01
3524;BME280;1776;53.330;11.498;2023-10-31T00:32:48;24251.91;;;-147.39;77.49
3524;BME280;1776;53.330;11.498;2023-10-31T00:35:13;24296.63;;;-147.39;77.65
3524;BME280;1776;53.330;11.498;2023-10-31T00:37:39;24306.81;;;-147.39;77.59
3524;BME280;1776;53.330;11.498;2023-10-31T00:40:08;24280.38;;;-147.39;77.33
3524;BME280;1776;53.330;11.498;2023-10-31T00:42:36;24251.91;;;-147.39;77.56
3524;BME280;1776;53.330;11.498;2023-10-31T00:45:02;24237.66;;;-147.39;77.85
3524;BME280;1776;53.330;11.498;2023-10-31T00:47:27;24270.22;;;-147.39;77.92
3524;BME280;1776;53.330;11.498;2023-10-31T00:49:52;24282.41;;;-147.39;78.16
3524;BME280;1776;53.330;11.498;2023-10-31T00:52:18;24266.13;;;-147.39;78.45
3524;BME280;1776;53.330;11.498;2023-10-31T00:54:43;24194.97;;;-147.39;78.34
3524;BME280;1776;53.330;11.498;2023-10-31T00:57:09;24310.88;;;-147.39;78.55
3524;BME280;1776;53.330;11.498;2023-10-31T00:59:34;24274.28;;;-147.39;78.91
3524;BME280;1776;53.330;11.498;2023-10-31T01:01:59;24272.25;;;-147.39;78.96
3524;BME280;1776;53.330;11.498;2023-10-31T01:04:25;24345.44;;;-147.39;78.99
3524;BME280;1776;53.330;11.498;2023-10-31T01:06:51;24386.09;;;-147.39;79.20
3524;BME280;1776;53.330;11.498;2023-10-31T01:09:16;24213.28;;;-147.39;79.14
3524;BME280;1776;53.330;11.498;2023-10-31T01:11:42;24194.97;;;-147.39;79.22
3524;BME280;1776;53.330;11.498;2023-10-31T01:14:07;24225.47;;;-147.39;79.25
3524;BME280;1776;53.330;11.498;2023-10-31T01:16:32;24199.03;;;-147.39;79.76
3524;BME280;1776;53.330;11.498;2023-10-31T01:18:57;24170.56;;;-147.39;80.13
3524;BME280;1776;53.330;11.498;2023-10-31T01:21:23;24174.63;;;-147.39;80.38
3524;BME280;1776;53.330;11.498;2023-10-31T01:23:48;24186.84;;;-147.39;80.54
3524;BME280;1776;53.330;11.498;2023-10-31T01:26:14;24154.31;;;-147.39;80.96
3524;BME280;1776;53.330;11.498;2023-10-31T01:28:39;24241.75;;;-147.39;81.36
3524;BME280;1776;53.330;11.498;2023-10-31T01:31:05;24205.13;;;-147.39;81.48
3524;BME280;1776;53.330;11.498;2023-10-31T01:33:31;24156.34;;;-147.39;81.39
3524;BME280;1776;53.330;11.498;2023-10-31T01:35:56;24172.59;;;-147.39;81.96
3524;BME280;1776;53.330;11.498;2023-10-31T01:38:21;24148.22;;;-147.39;81.85
3524;BME280;1776;53.330;11.498;2023-10-31T01:40:50;24101.44;;;-147.39;82.32
3524;BME280;1776;53.330;11.498;2023-10-31T01:45:56;24131.94;;;-147.39;82.62
3524;BME280;1776;53.330;11.498;2023-10-31T01:48:21;24127.88;;;-147.39;82.62
3524;BME280;1776;53.330;11.498;2023-10-31T01:50:48;24113.63;;;-147.39;82.49
3524;BME280;1776;53.330;11.498;2023-10-31T01:53:14;24197.00;;;-147.39;82.78
3524;BME280;1776;53.330;11.498;2023-10-31T01:55:39;24105.50;;;-147.39;83.46
3524;BME280;1776;53.330;11.498;2023-10-31T01:58:05;24103.47;;;-147.39;83.78
3524;BME280;1776;53.330;11.498;2023-10-31T02:00:30;24095.34;;;-147.39;83.91
3524;BME280;1776;53.330;11.498;2023-10-31T02:02:56;24146.16;;;-147.39;84.58
3524;BME280;1776;53.330;11.498;2023-10-31T02:05:22;24056.72;;;-147.39;85.60
3524;BME280;1776;53.330;11.498;2023-10-31T02:07:48;24054.69;;;-147.39;85.61
3524;BME280;1776;53.330;11.498;2023-10-31T02:10:13;24016.03;;;-147.39;85.64
3524;BME280;1776;53.330;11.498;2023-10-31T02:12:38;23991.66;;;-147.39;85.87
3524;BME280;1776;53.330;11.498;2023-10-31T02:15:04;24028.25;;;-147.39;85.91
3524;BME280;1776;53.330;11.498;2023-10-31T02:17:30;24014.00;;;-147.39;85.80
3524;BME280;1776;53.330;11.498;2023-10-31T02:19:55;24016.03;;;-147.39;85.95
3524;BME280;1776;53.330;11.498;2023-10-31T02:22:22;24018.06;;;-147.39;85.85
3524;BME280;1776;53.330;11.498;2023-10-31T02:24:47;24022.16;;;-147.39;85.54
3524;BME280;1776;53.330;11.498;2023-10-31T02:27:13;24016.03;;;-147.39;85.59
3524;BME280;1776;53.330;11.498;2023-10-31T02:29:39;24036.38;;;-147.39;85.32
3524;BME280;1776;53.330;11.498;2023-10-31T02:32:05;23635.84;;;-147.39;85.37
3524;BME280;1776;53.330;11.498;2023-10-31T02:34:30;24038.41;;;-147.39;85.29
3524;BME280;1776;53.330;11.498;2023-10-31T02:36:55;24018.06;;;-147.39;85.14
3524;BME280;1776;53.330;11.498;2023-10-31T02:39:20;24207.16;;;-147.39;85.37
3524;BME280;1776;53.330;11.498;2023-10-31T02:41:46;24046.53;;;-147.39;85.29
3524;BME280;1776;53.330;11.498;2023-10-31T02:44:11;24001.81;;;-147.39;85.06
3524;BME280;1776;53.330;11.498;2023-10-31T02:46:39;24009.94;;;-147.39;85.48
3524;BME280;1776;53.330;11.498;2023-10-31T02:49:04;24079.06;;;-147.39;85.68
3524;BME280;1776;53.330;11.498;2023-10-31T02:51:30;24101.44;;;-147.39;85.69
3524;BME280;1776;53.330;11.498;2023-10-31T02:53:55;23981.47;;;-147.39;85.35
3524;BME280;1776;53.330;11.498;2023-10-31T02:56:20;24022.16;;;-147.39;84.97
3524;BME280;1776;53.330;11.498;2023-10-31T02:58:45;24001.81;;;-147.39;85.01
3524;BME280;1776;53.330;11.498;2023-10-31T03:01:11;24119.75;;;-147.39;85.04
3524;BME280;1776;53.330;11.498;2023-10-31T03:03:36;24164.47;;;-147.39;85.37
3524;BME280;1776;53.330;11.498;2023-10-31T03:06:02;24095.34;;;-147.39;85.11
3524;BME280;1776;53.330;11.498;2023-10-31T03:08:27;24009.94;;;-147.39;84.98
3524;BME280;1776;53.330;11.498;2023-10-31T03:10:53;23995.72;;;-147.39;85.77
3524;BME280;1776;53.330;11.498;2023-10-31T03:13:18;23967.25;;;-147.39;86.51
3524;BME280;1776;53.330;11.498;2023-10-31T03:15:45;23995.72;;;-147.39;86.57
3524;BME280;1776;53.330;11.498;2023-10-31T03:18:11;24009.94;;;-147.39;86.01
3524;BME280;1776;53.330;11.498;2023-10-31T03:20:36;24001.81;;;-147.39;86.08
3524;BME280;1776;53.330;11.498;2023-10-31T03:23:01;23660.25;;;-147.39;85.89
3524;BME280;1776;53.330;11.498;2023-10-31T03:25:26;24001.81;;;-147.39;86.22
3524;BME280;1776;53.330;11.498;2023-10-31T03:27:52;23971.31;;;-147.39;86.11
3524;BME280;1776;53.330;11.498;2023-10-31T03:30:17;23969.28;;;-147.39;86.57
3524;BME280;1776;53.330;11.498;2023-10-31T03:32:42;23940.81;;;-147.39;86.72
3524;BME280;1776;53.330;11.498;2023-10-31T03:35:08;23969.28;;;-147.39;86.59
3524;BME280;1776;53.330;11.498;2023-10-31T03:37:33;23963.19;;;-147.39;86.62
3524;BME280;1776;53.330;11.498;2023-10-31T03:39:59;23942.84;;;-147.39;87.01
3524;BME280;1776;53.330;11.498;2023-10-31T03:42:24;23930.66;;;-147.39;87.46
3524;BME280;1776;53.330;11.498;2023-10-31T03:44:49;23955.03;;;-147.39;87.32
3524;BME280;1776;53.330;11.498;2023-10-31T03:47:14;23918.44;;;-147.39;88.05
3524;BME280;1776;53.330;11.498;2023-10-31T03:49:40;23739.53;;;-147.39;88.50
3524;BME280;1776;53.330;11.498;2023-10-31T03:52:06;23942.84;;;-147.39;88.85
3524;BME280;1776;53.330;11.498;2023-10-31T03:54:32;23843.22;;;-147.39;89.26
3524;BME280;1776;53.330;11.498;2023-10-31T03:56:57;23847.28;;;-147.39;89.60
3524;BME280;1776;53.330;11.498;2023-10-31T03:59:22;23820.84;;;-147.39;89.48
3524;BME280;1776;53.330;11.498;2023-10-31T04:01:48;23835.09;;;-147.39;89.22
3524;BME280;1776;53.330;11.498;2023-10-31T04:04:13;23450.84;;;-147.39;88.94
3524;BME280;1776;53.330;11.498;2023-10-31T04:06:38;23829.00;;;-147.39;88.79
3524;BME280;1776;53.330;11.498;2023-10-31T04:09:06;23918.44;;;-147.39;89.02
3524;BME280;1776;53.330;11.498;2023-10-31T04:11:31;23942.84;;;-147.39;88.96
3524;BME280;1776;53.330;11.498;2023-10-31T04:13:56;23829.00;;;-147.39;88.72
3524;BME280;1776;53.330;11.498;2023-10-31T04:16:21;23851.34;;;-147.39;88.60
3524;BME280;1776;53.330;11.498;2023-10-31T04:18:47;23835.09;;;-147.39;88.88
3524;BME280;1776;53.330;11.498;2023-10-31T04:21:12;23782.22;;;-147.39;89.30
3524;BME280;1776;53.330;11.498;2023-10-31T04:23:37;23792.41;;;-147.39;89.51
3524;BME280;1776;53.330;11.498;2023-10-31T04:26:03;23743.59;;;-147.39;89.90
3524;BME280;1776;53.330;11.498;2023-10-31T04:28:28;23794.44;;;-147.39;89.91
3524;BME280;1776;53.330;11.498;2023-10-31T04:30:53;23776.13;;;-147.39;90.22
3524;BME280;1776;53.330;11.498;2023-10-31T04:33:19;23719.19;;;-147.39;90.71
3524;BME280;1776;53.330;11.498;2023-10-31T04:35:44;23759.88;;;-147.39;90.80
3524;BME280;1776;53.330;11.498;2023-10-31T04:38:09;23694.81;;;-147.39;91.65
3524;BME280;1776;53.330;11.498;2023-10-31T04:40:35;23696.84;;;-147.39;91.68
3524;BME280;1776;53.330;11.498;2023-10-31T04:43:01;23637.88;;;-147.39;92.14
3524;BME280;1776;53.330;11.498;2023-10-31T04:45:26;23621.63;;;-147.39;92.79
3524;BME280;1776;53.330;11.498;2023-10-31T04:47:51;23580.97;;;-147.39;92.88
3524;BME280;1776;53.330;11.498;2023-10-31T04:50:16;23593.16;;;-147.39;92.98
3524;BME280;1776;53.330;11.498;2023-10-31T04:52:42;23593.16;;;-147.39;93.19
3524;BME280;1776;53.330;11.498;2023-10-31T04:55:07;23519.97;;;-147.39;93.37
3524;BME280;1776;53.330;11.498;2023-10-31T04:57:33;23635.84;;;-147.39;93.56
3524;BME280;1776;53.330;11.498;2023-10-31T04:59:58;23548.44;;;-147.39;93.48
3524;BME280;1776;53.330;11.498;2023-10-31T05:02:24;23442.72;;;-147.39;93.53
3524;BME280;1776;53.330;11.498;2023-10-31T05:04:49;23454.91;;;-147.39;93.73
3524;BME280;1776;53.330;11.498;2023-10-31T05:07:18;23515.91;;;-147.39;93.80
3524;BME280;1776;53.330;11.498;2023-10-31T05:09:43;23103.22;;;-147.39;93.25
3524;BME280;1776;53.330;11.498;2023-10-31T05:12:09;23483.38;;;-147.39;93.67
3524;BME280;1776;53.330;11.498;2023-10-31T05:14:34;23448.81;;;-147.39;93.66
3524;BME280;1776;53.330;11.498;2023-10-31T05:17:00;23444.75;;;-147.39;93.99
3524;BME280;1776;53.330;11.498;2023-10-31T05:19:25;23430.53;;;-147.39;94.10
3524;BME280;1776;53.330;11.498;2023-10-31T05:21:51;23385.78;;;-147.39;94.29
3524;BME280;1776;53.330;11.498;2023-10-31T05:24:16;23308.53;;;-147.39;94.28
3524;BME280;1776;53.330;11.498;2023-10-31T05:26:41;23300.41;;;-147.39;94.77
3524;BME280;1776;53.330;11.498;2023-10-31T05:29:10;23269.91;;;-147.39;95.01
3524;BME280;1776;53.330;11.498;2023-10-31T05:31:36;23286.19;;;-147.39;94.86
3524;BME280;1776;53.330;11.498;2023-10-31T05:34:01;23229.25;;;-147.39;95.09
3524;BME280;1776;53.330;11.498;2023-10-31T05:36:28;23188.59;;;-147.39;95.36
3524;BME280;1776;53.330;11.498;2023-10-31T05:38:54;23247.56;;;-147.39;95.01
3524;BME280;1776;53.330;11.498;2023-10-31T05:41:19;22473.13;;;-147.39;94.99
3524;BME280;1776;53.330;11.498;2023-10-31T05:43:45;23076.81;;;-147.39;95.21
3524;BME280;1776;53.330;11.498;2023-10-31T05:46:10;23093.06;;;-147.39;95.32
3524;BME280;1776;53.330;11.498;2023-10-31T05:48:39;23078.84;;;-147.39;95.44
3524;BME280;1776;53.330;11.498;2023-10-31T05:51:17;23064.59;;;-147.39;95.34
3524;BME280;1776;53.330;11.498;2023-10-31T05:53:47;22993.47;;;-147.39;95.44
3524;BME280;1776;53.330;11.498;2023-10-31T05:56:14;22967.03;;;-147.39;95.60
3524;BME280;1776;53.330;11.498;2023-10-31T05:58:40;23003.63;;;-147.39;95.38
3524;BME280;1776;53.330;11.498;2023-10-31T06:01:06;23011.75;;;-147.39;95.51
3524;BME280;1776;53.330;11.498;2023-10-31T06:03:32;23131.69;;;-147.39;95.38
3524;BME280;1776;53.330;11.498;2023-10-31T06:05:58;23076.81;;;-147.39;95.77
3524;BME280;1776;53.330;11.498;2023-10-31T06:08:24;22924.34;;;-147.39;95.91
3524;BME280;1776;53.330;11.498;2023-10-31T06:10:52;22928.41;;;-147.39;96.09
3524;BME280;1776;53.330;11.498;2023-10-31T06:13:18;22843.06;;;-147.39;96.18
3524;BME280;1776;53.330;11.498;2023-10-31T06:15:43;22867.44;;;-147.39;96.26
3524;BME280;1776;53.330;11.498;2023-10-31T06:18:09;22792.22;;;-147.39;96.38
3524;BME280;1776;53.330;11.498;2023-10-31T06:20:34;22735.31;;;-147.39;96.61
3524;BME280;1776;53.330;11.498;2023-10-31T06:23:01;22759.72;;;-147.39;96.66
3524;BME280;1776;53.330;11.498;2023-10-31T06:25:28;22674.34;;;-147.39;96.55
3524;BME280;1776;53.330;11.498;2023-10-31T06:27:53;22794.25;;;-147.39;96.66
3524;BME280;1776;53.330;11.498;2023-10-31T06:30:19;22869.47;;;-147.39;96.52
3524;BME280;1776;53.330;11.498;2023-10-31T06:32:44;22690.59;;;-147.39;96.43
3524;BME280;1776;53.330;11.498;2023-10-31T06:35:09;22652.00;;;-147.39;96.51
3524;BME280;1776;53.330;11.498;2023-10-31T06:37:35;22710.94;;;-147.39;96.45
3524;BME280;1776;53.330;11.498;2023-10-31T06:40:01;22629.63;;;-147.39;96.57
3524;BME280;1776;53.330;11.498;2023-10-31T06:42:26;22607.28;;;-147.39;96.41
3524;BME280;1776;53.330;11.498;2023-10-31T06:44:51;22603.22;;;-147.39;96.42
3524;BME280;1776;53.330;11.498;2023-10-31T06:47:17;22672.31;;;-147.39;96.56
3524;BME280;1776;53.330;11.498;2023-10-31T06:49:42;22737.34;;;-147.39;96.71
3524;BME280;1776;53.330;11.498;2023-10-31T06:52:07;22558.50;;;-147.39;96.78
3524;BME280;1776;53.330;11.498;2023-10-31T06:54:32;22554.44;;;-147.39;96.69
3524;BME280;1776;53.330;11.498;2023-10-31T06:56:59;22511.75;;;-147.39;96.97
3524;BME280;1776;53.330;11.498;2023-10-31T06:59:26;22505.66;;;-147.39;96.86
3524;BME280;1776;53.330;11.498;2023-10-31T07:01:51;22542.22;;;-147.39;96.73
3524;BME280;1776;53.330;11.498;2023-10-31T07:04:17;22511.75;;;-147.39;96.41
3524;BME280;1776;53.330;11.498;2023-10-31T07:06:43;22503.63;;;-147.39;96.67
3524;BME280;1776;53.330;11.498;2023-10-31T07:09:08;22548.34;;;-147.39;96.57
3524;BME280;1776;53.330;11.498;2023-10-31T07:11:34;22706.88;;;-147.39;96.45
3524;BME280;1776;53.330;11.498;2023-10-31T07:14:03;22532.06;;;-147.39;96.30
3524;BME280;1776;53.330;11.498;2023-10-31T07:16:29;22525.97;;;-147.39;96.03
3524;BME280;1776;53.330;11.498;2023-10-31T07:18:55;22700.78;;;-147.39;96.04
3524;BME280;1776;53.330;11.498;2023-10-31T07:21:20;22550.38;;;-147.39;95.83
3524;BME280;1776;53.330;11.498;2023-10-31T07:23:45;22674.34;;;-147.39;95.34
3524;BME280;1776;53.330;11.498;2023-10-31T07:26:10;22804.44;;;-147.39;94.70
3524;BME280;1776;53.330;11.498;2023-10-31T07:28:36;22629.63;;;-147.39;94.52
3524;BME280;1776;53.330;11.498;2023-10-31T07:31:01;22674.34;;;-147.39;94.08
3524;BME280;1776;53.330;11.498;2023-10-31T07:33:26;22690.59;;;-147.39;93.58
3524;BME280;1776;53.330;11.498;2023-10-31T07:35:52;22668.25;;;-147.39;93.86
3524;BME280;1776;53.330;11.498;2023-10-31T07:38:17;23082.91;;;-147.39;93.51
3524;BME280;1776;53.330;11.498;2023-10-31T07:40:43;22678.41;;;-147.39;93.55
3524;BME280;1776;53.330;11.498;2023-10-31T07:43:08;22739.38;;;-147.39;93.05
3524;BME280;1776;53.330;11.498;2023-10-31T07:45:33;22751.59;;;-147.39;92.69
3524;BME280;1776;53.330;11.498;2023-10-31T07:47:58;22883.69;;;-147.39;92.58
3524;BME280;1776;53.330;11.498;2023-10-31T07:50:24;22778.00;;;-147.39;92.41
3524;BME280;1776;53.330;11.498;2023-10-31T07:52:50;22745.47;;;-147.39;92.74
3524;BME280;1776;53.330;11.498;2023-10-31T07:55:15;22786.13;;;-147.39;93.25
3524;BME280;1776;53.330;11.498;2023-10-31T07:57:40;22741.41;;;-147.39;93.30
3524;BME280;1776;53.330;11.498;2023-10-31T08:00:09;22737.34;;;-147.39;93.15
3524;BME280;1776;53.330;11.498;2023-10-31T08:02:36;22743.44;;;-147.39;92.53
3524;BME280;1776;53.330;11.498;2023-10-31T08:05:01;22812.56;;;-147.39;92.52
3524;BME280;1776;53.330;11.498;2023-10-31T08:07:26;22794.25;;;-147.39;92.10
3524;BME280;1776;53.330;11.498;2023-10-31T08:09:55;22796.31;;;-147.39;91.63
3524;BME280;1776;53.330;11.498;2023-10-31T08:12:20;22873.53;;;-147.39;91.23
3524;BME280;1776;53.330;11.498;2023-10-31T08:14:45;22863.38;;;-147.39;91.02
3524;BME280;1776;53.330;11.498;2023-10-31T08:17:11;22812.56;;;-147.39;91.05
3524;BME280;1776;53.330;11.498;2023-10-31T08:19:36;22822.72;;;-147.39;91.27
3524;BME280;1776;53.330;11.498;2023-10-31T08:22:02;22885.72;;;-147.39;91.44
3524;BME280;1776;53.330;11.498;2023-10-31T08:24:27;22936.56;;;-147.39;91.34
3524;BME280;1776;53.330;11.498;2023-10-31T08:26:52;22836.94;;;-147.39;91.29
3524;BME280;1776;53.330;11.498;2023-10-31T08:29:18;22869.47;;;-147.39;91.20
3524;BME280;1776;53.330;11.498;2023-10-31T08:31:43;22438.56;;;-147.39;90.94
3524;BME280;1776;53.330;11.498;2023-10-31T08:34:08;22816.63;;;-147.39;91.11
3524;BME280;1776;53.330;11.498;2023-10-31T08:36:34;22853.22;;;-147.39;91.11
3524;BME280;1776;53.330;11.498;2023-10-31T08:38:59;22845.09;;;-147.39;91.13
3524;BME280;1776;53.330;11.498;2023-10-31T08:41:24;22857.28;;;-147.39;91.08
3524;BME280;1776;53.330;11.498;2023-10-31T08:43:49;22987.38;;;-147.39;90.83
3524;BME280;1776;53.330;11.498;2023-10-31T08:46:15;22934.53;;;-147.39;90.72
3524;BME280;1776;53.330;11.498;2023-10-31T08:48:40;22940.63;;;-147.39;90.60
3524;BME280;1776;53.330;11.498;2023-10-31T08:51:05;22928.41;;;-147.39;90.33
3524;BME280;1776;53.330;11.498;2023-10-31T08:53:31;22493.47;;;-147.39;90.31
3524;BME280;1776;53.330;11.498;2023-10-31T08:55:56;23038.19;;;-147.39;89.97
3524;BME280;1776;53.330;11.498;2023-10-31T08:58:21;22954.84;;;-147.39;89.93
3524;BME280;1776;53.330;11.498;2023-10-31T09:00:47;23013.78;;;-147.39;89.80
3524;BME280;1776;53.330;11.498;2023-10-31T09:03:12;22952.81;;;-147.39;89.72
3524;BME280;1776;53.330;11.498;2023-10-31T09:05:37;22993.47;;;-147.39;89.79
3524;BME280;1776;53.330;11.498;2023-10-31T09:08:03;22999.56;;;-147.39;89.88
3524;BME280;1776;53.330;11.498;2023-10-31T09:10:28;22910.13;;;-147.39;90.09
3524;BME280;1776;53.330;11.498;2023-10-31T09:12:53;22914.19;;;-147.39;89.99
3524;BME280;1776;53.330;11.498;2023-10-31T09:15:18;22932.47;;;-147.39;89.89
3524;BME280;1776;53.330;11.498;2023-10-31T09:17:44;22808.50;;;-147.39;89.87
3524;BME280;1776;53.330;11.498;2023-10-31T09:20:09;22969.06;;;-147.39;89.98
3524;BME280;1776;53.330;11.498;2023-10-31T09:22:36;22944.69;;;-147.39;89.89
3524;BME280;1776;53.330;11.498;2023-10-31T09:25:01;22960.94;;;-147.39;89.42
3524;BME280;1776;53.330;11.498;2023-10-31T09:27:27;22940.63;;;-147.39;89.59
3524;BME280;1776;53.330;11.498;2023-10-31T09:29:53;22962.97;;;-147.39;89.54
3524;BME280;1776;53.330;11.498;2023-10-31T09:32:18;22995.50;;;-147.39;89.55
3524;BME280;1776;53.330;11.498;2023-10-31T09:34:43;23129.66;;;-147.39;89.33
3524;BME280;1776;53.330;11.498;2023-10-31T09:37:08;22993.47;;;-147.39;88.97
3524;BME280;1776;53.330;11.498;2023-10-31T09:39:34;22962.97;;;-147.39;88.85
3524;BME280;1776;53.330;11.498;2023-10-31T09:41:59;23007.69;;;-147.39;88.67
3524;BME280;1776;53.330;11.498;2023-10-31T09:44:24;23030.06;;;-147.39;88.23
3524;BME280;1776;53.330;11.498;2023-10-31T09:46:51;23068.69;;;-147.39;87.96
3524;BME280;1776;53.330;11.498;2023-10-31T09:49:18;23080.88;;;-147.39;87.44
3524;BME280;1776;53.330;11.498;2023-10-31T09:51:43;23066.66;;;-147.39;86.76
3524;BME280;1776;53.330;11.498;2023-10-31T09:54:09;23245.53;;;-147.39;85.96
3524;BME280;1776;53.330;11.498;2023-10-31T09:56:34;23154.06;;;-147.39;85.81
3524;BME280;1776;53.330;11.498;2023-10-31T09:59:01;23210.97;;;-147.39;85.37
3524;BME280;1776;53.330;11.498;2023-10-31T10:01:28;23190.63;;;-147.39;84.97
3524;BME280;1776;53.330;11.498;2023-10-31T10:03:53;23387.81;;;-147.39;84.35
3524;BME280;1776;53.330;11.498;2023-10-31T10:06:23;23235.38;;;-147.39;83.58
3524;BME280;1776;53.330;11.498;2023-10-31T10:08:49;23290.25;;;-147.39;83.66
3524;BME280;1776;53.330;11.498;2023-10-31T10:11:14;23271.94;;;-147.39;84.02
3524;BME280;1776;53.330;11.498;2023-10-31T10:13:40;23269.91;;;-147.39;83.66
3524;BME280;1776;53.330;11.498;2023-10-31T10:16:05;23292.28;;;-147.39;83.83
3524;BME280;1776;53.330;11.498;2023-10-31T10:18:33;23337.00;;;-147.39;83.15
3524;BME280;1776;53.330;11.498;2023-10-31T10:21:02;23302.44;;;-147.39;83.34
3524;BME280;1776;53.330;11.498;2023-10-31T10:23:28;23351.22;;;-147.39;83.59
3524;BME280;1776;53.330;11.498;2023-10-31T10:25:56;23312.63;;;-147.39;83.48
3524;BME280;1776;53.330;11.498;2023-10-31T10:28:21;23349.19;;;-147.39;83.10
3524;BME280;1776;53.330;11.498;2023-10-31T10:30:50;23072.75;;;-147.39;82.98
3524;BME280;1776;53.330;11.498;2023-10-31T10:33:16;23326.84;;;-147.39;82.98
3524;BME280;1776;53.330;11.498;2023-10-31T10:35:42;23337.00;;;-147.39;82.83
3524;BME280;1776;53.330;11.498;2023-10-31T10:38:11;23377.66;;;-147.39;82.50
3524;BME280;1776;53.330;11.498;2023-10-31T10:40:40;23400.03;;;-147.39;82.02
3524;BME280;1776;53.330;11.498;2023-10-31T10:43:06;23483.38;;;-147.39;82.42
3524;BME280;1776;53.330;11.498;2023-10-31T10:45:38;23371.56;;;-147.39;83.32
3524;BME280;1776;53.330;11.498;2023-10-31T10:48:05;23389.84;;;-147.39;83.37
3524;BME280;1776;53.330;11.498;2023-10-31T10:50:33;23393.94;;;-147.39;84.17
3524;BME280;1776;53.330;11.498;2023-10-31T10:53:24;23261.78;;;-147.39;84.80
3524;BME280;1776;53.330;11.498;2023-10-31T10:55:56;23314.66;;;-147.39;85.58
3524;BME280;1776;53.330;11.498;2023-10-31T10:58:26;23286.19;;;-147.39;86.26
3524;BME280;1776;53.330;11.498;2023-10-31T11:00:53;23290.25;;;-147.39;86.44
3524;BME280;1776;53.330;11.498;2023-10-31T11:03:21;23186.56;;;-147.39;87.28
3524;BME280;1776;53.330;11.498;2023-10-31T11:05:47;23158.13;;;-147.39;87.85
3524;BME280;1776;53.330;11.498;2023-10-31T11:08:13;23121.53;;;-147.39;88.71
3524;BME280;1776;53.330;11.498;2023-10-31T11:10:39;23111.38;;;-147.39;89.00
3524;BME280;1776;53.330;11.498;2023-10-31T11:13:05;23089.00;;;-147.39;89.54
3524;BME280;1776;53.330;11.498;2023-10-31T11:15:30;23101.19;;;-147.39;89.06
3524;BME280;1776;53.330;11.498;2023-10-31T11:17:56;23099.16;;;-147.39;88.83
3524;BME280;1776;53.330;11.498;2023-10-31T11:20:22;23166.25;;;-147.39;88.60
3524;BME280;1776;53.330;11.498;2023-10-31T11:22:54;23123.56;;;-147.39;88.17
3524;BME280;1776;53.330;11.498;2023-10-31T11:25:23;23202.84;;;-147.39;88.20
3524;BME280;1776;53.330;11.498;2023-10-31T11:27:52;23166.25;;;-147.39;87.17
3524;BME280;1776;53.330;11.498;2023-10-31T11:30:27;23253.66;;;-147.39;86.92
3524;BME280;1776;53.330;11.498;2023-10-31T11:32:53;23219.09;;;-147.39;86.66
3524;BME280;1776;53.330;11.498;2023-10-31T11:35:21;23294.31;;;-147.39;85.76
3524;BME280;1776;53.330;11.498;2023-10-31T11:38:01;23210.97;;;-147.39;85.60
3524;BME280;1776;53.330;11.498;2023-10-31T11:40:28;23265.84;;;-147.39;85.27
3524;BME280;1776;53.330;11.498;2023-10-31T11:42:57;23233.34;;;-147.39;84.93
3524;BME280;1776;53.330;11.498;2023-10-31T11:45:42;23243.50;;;-147.39;85.21
3524;BME280;1776;53.330;11.498;2023-10-31T11:48:10;23231.28;;;-147.39;85.43
3524;BME280;1776;53.330;11.498;2023-10-31T11:50:37;23200.81;;;-147.39;85.85
3524;BME280;1776;53.330;11.498;2023-10-31T11:53:13;23231.28;;;-147.39;86.28
3524;BME280;1776;53.330;11.498;2023-10-31T11:55:40;23223.16;;;-147.39;86.51
3524;BME280;1776;53.330;11.498;2023-10-31T11:58:23;23231.28;;;-147.39;86.74
3524;BME280;1776;53.330;11.498;2023-10-31T12:01:02;23188.59;;;-147.39;86.67
3524;BME280;1776;53.330;11.498;2023-10-31T12:03:36;23227.22;;;-147.39;86.87
3524;BME280;1776;53.330;11.498;2023-10-31T12:06:02;23282.13;;;-147.39;86.82
3524;BME280;1776;53.330;11.498;2023-10-31T12:08:28;23174.38;;;-147.39;87.61
3524;BME280;1776;53.330;11.498;2023-10-31T12:11:09;23156.09;;;-147.39;87.82
3524;BME280;1776;53.330;11.498;2023-10-31T12:13:36;23190.63;;;-147.39;87.46
3524;BME280;1776;53.330;11.498;2023-10-31T12:16:02;23259.75;;;-147.39;87.55
3524;BME280;1776;53.330;11.498;2023-10-31T12:18:28;23221.13;;;-147.39;87.55
3524;BME280;1776;53.330;11.498;2023-10-31T12:20:53;23314.66;;;-147.39;87.32
3524;BME280;1776;53.330;11.498;2023-10-31T12:23:19;23139.81;;;-147.39;87.20
3524;BME280;1776;53.330;11.498;2023-10-31T12:25:51;23168.28;;;-147.39;86.86
3524;BME280;1776;53.330;11.498;2023-10-31T12:28:17;23164.22;;;-147.39;86.60
3524;BME280;1776;53.330;11.498;2023-10-31T12:30:50;23180.47;;;-147.39;87.08
3524;BME280;1776;53.330;11.498;2023-10-31T12:33:16;23194.72;;;-147.39;86.40
3524;BME280;1776;53.330;11.498;2023-10-31T12:35:43;23070.72;;;-147.39;86.34
3524;BME280;1776;53.330;11.498;2023-10-31T12:38:12;23219.09;;;-147.39;86.28
3524;BME280;1776;53.330;11.498;2023-10-31T12:40:39;23200.81;;;-147.39;85.76
3524;BME280;1776;53.330;11.498;2023-10-31T12:43:05;23278.06;;;-147.39;85.58
3524;BME280;1776;53.330;11.498;2023-10-31T12:45:31;23361.41;;;-147.39;85.22
3524;BME280;1776;53.330;11.498;2023-10-31T12:48:09;23304.47;;;-147.39;84.52